Time;durP1;ratioP1;P1;durP2;ratioP2;P2;SDS_P1;SDS_P2;PMS_P1;PMS_P2;Temp;Humidity;BMP_temperature;BMP_pressure;BME280_temperature;BME280_humidity;BME280_pressure;Samples;Min_cycle;Max_cycle;Signal;HPM_P1;HPM_P2
2021/12/20 00:02:17;;;;;;;;;;;;;;;7.70;45.00;101104.81;143735;981;46019;-69
2021/12/20 00:04:46;;;;;;;;;;;;;;;7.67;44.97;101102.50;143736;972;46028;-68
2021/12/20 00:07:12;;;;;;;;;;;;;;;7.64;44.83;101094.81;143735;983;46008;-68
2021/12/20 00:09:37;;;;;;;;;;;;;;;7.60;44.77;101099.62;143734;985;47000;-68
2021/12/20 00:12:09;;;;;;;;;;;;;;;7.56;44.89;101096.47;143735;982;46010;-71
2021/12/20 00:14:35;;;;;;;;;;;;;;;7.57;45.35;101097.34;143734;981;47002;-69
2021/12/20 00:17:01;;;;;;;;;;;;;;;7.51;45.43;101096.12;143734;984;47008;-69
2021/12/20 00:19:30;;;;;;;;;;;;;;;7.46;45.89;101095.84;143738;986;46012;-71
2021/12/20 00:22:01;;;;;;;;;;;;;;;7.46;45.57;101098.50;143735;982;46011;-68
2021/12/20 00:24:27;;;;;;;;;;;;;;;7.51;45.30;101092.66;143732;982;47002;-68
2021/12/20 00:26:53;;;;;;;;;;;;;;;7.49;45.96;101095.50;143734;984;47008;-68
2021/12/20 00:29:18;;;;;;;;;;;;;;;7.44;45.98;101092.50;143734;985;47000;-69
2021/12/20 00:31:44;;;;;;;;;;;;;;;7.41;45.97;101090.97;143735;982;46010;-68
2021/12/20 00:34:10;;;;;;;;;;;;;;;7.41;45.77;101098.16;143734;982;47002;-68
2021/12/20 00:36:45;;;;;;;;;;;;;;;7.40;45.49;101092.00;143734;983;47000;-68
2021/12/20 00:41:55;;;;;;;;;;;;;;;7.43;45.81;101083.63;143732;986;46010;-68
2021/12/20 00:44:20;;;;;;;;;;;;;;;7.46;45.69;101081.63;143734;977;47002;-70
2021/12/20 00:46:46;;;;;;;;;;;;;;;7.46;45.67;101085.16;143734;986;47008;-68
2021/12/20 00:49:12;;;;;;;;;;;;;;;7.44;45.78;101100.50;143734;982;47000;-68
2021/12/20 00:51:38;;;;;;;;;;;;;;;7.43;45.52;101083.63;143732;985;47011;-68
2021/12/20 00:54:04;;;;;;;;;;;;;;;7.42;45.40;101089.16;143732;978;47002;-71
2021/12/20 00:56:30;;;;;;;;;;;;;;;7.48;45.04;101083.16;143733;985;46931;-69
2021/12/20 00:58:56;;;;;;;;;;;;;;;7.56;44.93;101091.13;143734;981;47000;-69
2021/12/20 01:01:22;;;;;;;;;;;;;;;7.52;45.57;101079.09;143734;986;47010;-68
2021/12/20 01:03:48;;;;;;;;;;;;;;;7.53;45.28;101083.44;143732;978;47002;-68
2021/12/20 01:06:13;;;;;;;;;;;;;;;7.49;44.95;101078.63;143734;986;47009;-68
2021/12/20 01:08:41;;;;;;;;;;;;;;;7.49;44.47;101074.13;143733;982;47000;-68
2021/12/20 01:11:07;;;;;;;;;;;;;;;7.49;45.08;101068.78;143736;986;46011;-68
2021/12/20 01:13:41;;;;;;;;;;;;;;;7.44;44.62;101065.78;143734;977;47003;-68
2021/12/20 01:16:08;;;;;;;;;;;;;;;7.48;44.46;101059.09;143735;985;46008;-69
2021/12/20 01:18:34;;;;;;;;;;;;;;;7.51;44.21;101069.41;143734;982;47000;-69
2021/12/20 01:21:00;;;;;;;;;;;;;;;7.50;44.44;101078.44;143734;985;46011;-69
2021/12/20 01:23:26;;;;;;;;;;;;;;;7.47;44.33;101068.09;143733;978;47002;-69
2021/12/20 01:25:51;;;;;;;;;;;;;;;7.50;44.13;101069.59;143734;985;46008;-68
2021/12/20 01:28:17;;;;;;;;;;;;;;;7.49;43.91;101067.94;143735;981;47000;-68
2021/12/20 01:30:44;;;;;;;;;;;;;;;7.52;43.51;101064.91;143732;986;47010;-68
2021/12/20 01:33:12;;;;;;;;;;;;;;;7.52;43.96;101068.41;143733;978;47002;-68
2021/12/20 01:35:38;;;;;;;;;;;;;;;7.50;44.44;101061.56;143735;984;46009;-68
2021/12/20 01:38:05;;;;;;;;;;;;;;;7.48;44.18;101059.09;143733;981;47000;-69
2021/12/20 01:40:31;;;;;;;;;;;;;;;7.50;44.00;101053.56;143735;986;46010;-69
2021/12/20 01:42:57;;;;;;;;;;;;;;;7.47;43.80;101054.75;143734;978;47002;-69
2021/12/20 01:45:24;;;;;;;;;;;;;;;7.48;43.89;101047.53;143737;985;46000;-68
2021/12/20 01:47:52;;;;;;;;;;;;;;;7.49;43.94;101052.75;143735;982;47000;-68
2021/12/20 01:50:40;;;;;;;;;;;;;;;7.49;43.68;101049.22;143735;985;47011;-68
2021/12/20 01:53:07;;;;;;;;;;;;;;;7.52;43.68;101047.03;143731;977;47002;-69
2021/12/20 01:55:33;;;;;;;;;;;;;;;7.51;44.47;101042.69;143735;986;46008;-69
2021/12/20 01:57:59;;;;;;;;;;;;;;;7.48;44.59;101040.37;143735;982;47000;-69
2021/12/20 02:00:26;;;;;;;;;;;;;;;7.44;44.76;101042.53;143736;985;46010;-68
2021/12/20 02:03:03;;;;;;;;;;;;;;;7.40;45.04;101032.38;143731;978;47002;-69
2021/12/20 02:08:26;;;;;;;;;;;;;;;7.36;45.06;101028.34;143735;986;47002;-68
2021/12/20 02:10:55;;;;;;;;;;;;;;;7.34;45.22;101027.69;143735;982;47012;-69
2021/12/20 02:13:21;;;;;;;;;;;;;;;7.34;44.99;101012.50;143734;981;47004;-70
2021/12/20 02:15:47;;;;;;;;;;;;;;;7.33;44.42;101015.31;143736;971;46029;-67
2021/12/20 02:18:13;;;;;;;;;;;;;;;7.32;45.23;101013.69;143735;985;47002;-67
2021/12/20 02:20:39;;;;;;;;;;;;;;;7.30;45.18;101005.81;143734;977;47013;-69
2021/12/20 02:23:06;;;;;;;;;;;;;;;7.27;45.81;101004.34;143731;982;47004;-68
2021/12/20 02:25:32;;;;;;;;;;;;;;;7.26;45.74;100997.31;143734;984;47010;-68
2021/12/20 02:28:00;;;;;;;;;;;;;;;7.27;45.84;100990.13;143735;985;47002;-68
2021/12/20 02:38:44;;;;;;;;;;;;;;;7.19;45.79;100985.63;143735;982;47002;-68
2021/12/20 02:41:13;;;;;;;;;;;;;;;7.21;45.70;100980.97;143733;976;47012;-68
2021/12/20 02:43:43;;;;;;;;;;;;;;;7.21;45.23;100977.47;143731;977;47004;-67
2021/12/20 02:46:48;;;;;;;;;;;;;;;7.21;45.39;100967.59;143735;985;46010;-68
2021/12/20 02:49:13;;;;;;;;;;;;;;;7.21;45.28;100977.47;143737;985;46011;-68
2021/12/20 02:51:39;;;;;;;;;;;;;;;7.14;45.52;100974.66;143737;979;46021;-70
2021/12/20 02:54:07;;;;;;;;;;;;;;;7.12;45.40;100960.62;143733;982;47004;-68
2021/12/20 02:56:34;;;;;;;;;;;;;;;7.15;44.95;100970.94;143734;984;47011;-68
2021/12/20 02:59:00;;;;;;;;;;;;;;;7.20;44.41;100965.13;143735;985;47002;-68
2021/12/20 03:01:26;;;;;;;;;;;;;;;7.25;44.31;100970.75;143735;982;46012;-69
2021/12/20 03:03:52;;;;;;;;;;;;;;;7.29;43.52;100953.41;143734;982;47005;-69
2021/12/20 03:06:38;;;;;;;;;;;;;;;7.29;43.68;100956.06;143735;983;46010;-69
2021/12/20 03:09:08;;;;;;;;;;;;;;;7.28;44.17;100967.75;143735;982;47002;-69
2021/12/20 03:11:35;;;;;;;;;;;;;;;7.31;43.13;100959.41;143735;972;46028;-70
2021/12/20 03:14:21;;;;;;;;;;;;;;;7.39;42.12;100946.03;143734;982;47004;-68
2021/12/20 03:16:48;;;;;;;;;;;;;;;7.44;42.12;100957.03;143735;984;46010;-70
2021/12/20 03:19:14;;;;;;;;;;;;;;;7.48;41.86;100951.34;143734;985;47002;-70
2021/12/20 03:21:40;;;;;;;;;;;;;;;7.51;42.87;100951.81;143735;982;46012;-68
2021/12/20 03:24:06;;;;;;;;;;;;;;;7.49;42.83;100948.50;143731;982;47004;-68
2021/12/20 03:26:32;;;;;;;;;;;;;;;7.48;43.17;100957.53;143735;984;46011;-68
2021/12/20 03:28:58;;;;;;;;;;;;;;;7.47;43.61;100955.00;143734;985;47002;-69
2021/12/20 03:31:24;;;;;;;;;;;;;;;7.39;44.17;100963.88;143735;982;47012;-69
2021/12/20 03:33:50;;;;;;;;;;;;;;;7.35;44.14;100967.91;143731;982;47004;-68
2021/12/20 03:36:16;;;;;;;;;;;;;;;7.35;43.94;100974.09;143734;983;47010;-69
2021/12/20 03:38:42;;;;;;;;;;;;;;;7.39;43.69;100975.44;143734;986;47002;-69
2021/12/20 03:41:08;;;;;;;;;;;;;;;7.36;44.11;100972.25;143733;982;47012;-69
2021/12/20 03:43:35;;;;;;;;;;;;;;;7.35;43.92;100975.91;143732;981;47004;-69
2021/12/20 03:46:02;;;;;;;;;;;;;;;7.29;44.38;100988.12;143736;984;46010;-69
2021/12/20 03:48:28;;;;;;;;;;;;;;;7.25;44.75;100989.47;143732;986;47002;-69
2021/12/20 03:50:54;;;;;;;;;;;;;;;7.20;45.14;101000.66;143735;981;46012;-69
2021/12/20 03:53:20;;;;;;;;;;;;;;;7.18;45.14;101005.34;143731;982;47004;-68
2021/12/20 03:55:46;;;;;;;;;;;;;;;7.18;45.53;101017.88;143735;983;46011;-69
2021/12/20 03:58:12;;;;;;;;;;;;;;;7.18;45.71;101012.53;143733;985;47002;-70
2021/12/20 04:00:38;;;;;;;;;;;;;;;7.18;45.33;101013.34;143736;981;46012;-69
2021/12/20 04:03:10;;;;;;;;;;;;;;;7.21;44.84;101020.22;143732;982;47004;-68
2021/12/20 04:05:36;;;;;;;;;;;;;;;7.25;44.86;101024.19;143737;983;46010;-68
2021/12/20 04:08:01;;;;;;;;;;;;;;;7.25;44.42;101022.38;143736;985;47002;-69
2021/12/20 04:10:27;;;;;;;;;;;;;;;7.26;44.35;101024.03;143734;982;47012;-69
2021/12/20 04:12:53;;;;;;;;;;;;;;;7.26;44.90;101024.03;143732;981;47004;-69
2021/12/20 04:15:19;;;;;;;;;;;;;;;7.27;43.91;101025.72;143732;984;47010;-70
2021/12/20 04:17:45;;;;;;;;;;;;;;;7.28;44.67;101023.84;143736;986;47002;-68
2021/12/20 04:20:11;;;;;;;;;;;;;;;7.20;45.41;101019.38;143737;981;46013;-68
2021/12/20 04:22:37;;;;;;;;;;;;;;;7.17;45.41;101019.69;143732;982;47004;-69
2021/12/20 04:25:03;;;;;;;;;;;;;;;7.15;45.13;101021.69;143735;984;46010;-68
2021/12/20 04:27:29;;;;;;;;;;;;;;;7.17;45.97;101035.72;143735;971;47002;-68
2021/12/20 04:29:55;;;;;;;;;;;;;;;7.16;45.91;101036.72;143735;970;46937;-69
2021/12/20 04:32:22;;;;;;;;;;;;;;;7.13;45.57;101042.44;143732;982;47004;-70
2021/12/20 04:34:47;;;;;;;;;;;;;;;7.11;45.38;101039.91;143734;983;47010;-69
2021/12/20 04:37:13;;;;;;;;;;;;;;;7.11;45.50;101036.41;143734;986;47002;-69
2021/12/20 04:39:40;;;;;;;;;;;;;;;7.10;45.97;101024.88;143733;982;47012;-69
2021/12/20 04:42:08;;;;;;;;;;;;;;;7.14;45.29;101028.06;143734;981;47004;-69
2021/12/20 04:44:34;;;;;;;;;;;;;;;7.18;44.87;101033.91;143736;981;46010;-69
2021/12/20 04:47:00;;;;;;;;;;;;;;;7.27;43.98;101027.53;143736;986;47002;-70
2021/12/20 04:49:26;;;;;;;;;;;;;;;7.33;43.76;101039.38;143735;981;46012;-69
2021/12/20 04:51:53;;;;;;;;;;;;;;;7.32;44.71;101041.22;143733;982;47004;-70
2021/12/20 04:54:19;;;;;;;;;;;;;;;7.24;45.08;101044.75;143735;984;46010;-69
2021/12/20 04:56:45;;;;;;;;;;;;;;;7.20;45.23;101027.37;143734;985;47002;-70
2021/12/20 04:59:10;;;;;;;;;;;;;;;7.19;45.08;101028.38;143734;982;46012;-70
2021/12/20 05:01:36;;;;;;;;;;;;;;;7.21;45.54;101031.72;143731;982;47004;-69
2021/12/20 05:04:02;;;;;;;;;;;;;;;7.18;45.73;101031.22;143735;983;46011;-69
2021/12/20 05:06:31;;;;;;;;;;;;;;;7.09;45.82;101036.56;143734;985;47002;-69
2021/12/20 05:08:57;;;;;;;;;;;;;;;7.04;45.04;101028.25;143735;982;46012;-69
2021/12/20 05:11:23;;;;;;;;;;;;;;;7.11;45.44;101031.06;143733;982;47005;-68
2021/12/20 05:13:49;;;;;;;;;;;;;;;7.12;45.33;101038.09;143734;984;47010;-68
2021/12/20 05:16:15;;;;;;;;;;;;;;;7.10;45.86;101038.25;143731;985;47010;-69
2021/12/20 05:18:41;;;;;;;;;;;;;;;7.06;45.40;101034.22;143733;982;47012;-69
2021/12/20 05:21:07;;;;;;;;;;;;;;;7.11;44.99;101037.25;143730;981;47012;-69
2021/12/20 05:23:33;;;;;;;;;;;;;;;7.21;44.18;101031.72;143734;984;46935;-69
2021/12/20 05:25:59;;;;;;;;;;;;;;;7.26;43.91;101033.87;143734;985;47002;-70
2021/12/20 05:28:25;;;;;;;;;;;;;;;7.30;44.05;101047.75;143736;982;46012;-70
2021/12/20 05:30:52;;;;;;;;;;;;;;;7.30;44.06;101037.88;143731;982;47004;-70
2021/12/20 05:33:19;;;;;;;;;;;;;;;7.31;44.82;101033.41;143734;984;46011;-72
2021/12/20 05:35:45;;;;;;;;;;;;;;;7.25;44.99;101042.91;143733;986;47002;-69
2021/12/20 05:38:11;;;;;;;;;;;;;;;7.20;45.37;101040.75;143734;982;47012;-69
2021/12/20 05:40:37;;;;;;;;;;;;;;;7.15;44.71;101037.72;143736;982;47004;-68
2021/12/20 05:43:04;;;;;;;;;;;;;;;7.15;45.13;101037.72;143736;972;47010;-68
2021/12/20 05:45:30;;;;;;;;;;;;;;;7.08;45.85;101034.06;143735;985;47002;-69
2021/12/20 05:47:56;;;;;;;;;;;;;;;7.14;45.21;101033.41;143736;981;46938;-71
2021/12/20 05:50:22;;;;;;;;;;;;;;;7.17;45.50;101033.06;143734;981;47004;-69
2021/12/20 05:52:49;;;;;;;;;;;;;;;7.19;45.36;101043.59;143736;984;46010;-69
2021/12/20 05:55:15;;;;;;;;;;;;;;;7.23;45.77;101042.25;143735;986;47002;-70
2021/12/20 05:57:41;;;;;;;;;;;;;;;7.27;45.33;101030.22;143735;977;46023;-68
2021/12/20 06:00:12;;;;;;;;;;;;;;;7.24;45.68;101054.59;143733;982;47004;-70
2021/12/20 06:02:38;;;;;;;;;;;;;;;7.23;46.04;101039.59;143735;984;46010;-69
2021/12/20 06:05:05;;;;;;;;;;;;;;;7.25;45.58;101043.75;143734;985;47002;-69
2021/12/20 06:07:31;;;;;;;;;;;;;;;7.20;45.50;101048.75;143732;982;47012;-69
2021/12/20 06:09:57;;;;;;;;;;;;;;;7.26;44.54;101044.56;143732;982;47004;-71
2021/12/20 06:12:23;;;;;;;;;;;;;;;7.34;45.44;101044.56;143736;972;46028;-69
2021/12/20 06:14:49;;;;;;;;;;;;;;;7.37;44.45;101046.06;143738;985;46010;-70
2021/12/20 06:17:15;;;;;;;;;;;;;;;7.36;44.65;101039.91;143735;978;46022;-68
2021/12/20 06:19:41;;;;;;;;;;;;;;;7.45;43.97;101043.37;143734;981;47004;-68
2021/12/20 06:22:10;;;;;;;;;;;;;;;7.51;44.36;101047.22;143736;984;46010;-68
2021/12/20 06:24:35;;;;;;;;;;;;;;;7.61;44.13;101063.06;143733;986;47002;-69
2021/12/20 06:27:02;;;;;;;;;;;;;;;7.66;42.58;101050.03;143734;981;46013;-68
2021/12/20 06:29:27;;;;;;;;;;;;;;;7.71;42.07;101056.53;143734;982;47004;-69
2021/12/20 06:31:53;;;;;;;;;;;;;;;7.76;42.44;101049.84;143736;984;46010;-70
2021/12/20 06:34:19;;;;;;;;;;;;;;;7.79;43.10;101054.81;143734;985;47002;-68
2021/12/20 06:36:45;;;;;;;;;;;;;;;7.77;42.69;101055.00;143735;982;46012;-68
2021/12/20 06:39:11;;;;;;;;;;;;;;;7.79;42.11;101060.16;143731;982;47004;-69
2021/12/20 06:41:37;;;;;;;;;;;;;;;7.76;42.51;101050.66;143734;983;47011;-69
2021/12/20 06:44:04;;;;;;;;;;;;;;;7.86;42.45;101061.16;143734;985;47002;-70
2021/12/20 06:46:32;;;;;;;;;;;;;;;7.95;41.96;101061.97;143736;982;46012;-68
2021/12/20 06:48:57;;;;;;;;;;;;;;;8.03;41.75;101069.97;143733;981;47004;-67
2021/12/20 06:51:23;;;;;;;;;;;;;;;8.07;42.27;101065.91;143732;984;47010;-68
2021/12/20 06:53:49;;;;;;;;;;;;;;;8.10;43.07;101057.56;143733;985;47002;-69
2021/12/20 06:56:15;;;;;;;;;;;;;;;8.14;42.41;101064.22;143735;982;46012;-69
2021/12/20 06:58:41;;;;;;;;;;;;;;;8.17;42.71;101077.28;143732;982;47004;-69
2021/12/20 07:01:07;;;;;;;;;;;;;;;8.25;42.62;101072.88;143733;984;46936;-67
2021/12/20 07:03:33;;;;;;;;;;;;;;;8.30;42.60;101081.22;143735;986;47002;-67
2021/12/20 07:05:59;;;;;;;;;;;;;;;8.35;43.00;101068.16;143734;982;47012;-70
2021/12/20 07:08:25;;;;;;;;;;;;;;;8.44;42.67;101066.28;143731;982;47004;-68
2021/12/20 07:10:51;;;;;;;;;;;;;;;8.56;42.07;101067.56;143733;983;46936;-69
2021/12/20 07:13:18;;;;;;;;;;;;;;;8.69;41.03;101061.63;143733;985;47002;-69
2021/12/20 07:15:44;;;;;;;;;;;;;;;8.79;40.58;101058.72;143735;982;46012;-69
2021/12/20 07:18:10;;;;;;;;;;;;;;;8.87;40.73;101058.62;143735;981;47004;-69
2021/12/20 07:20:35;;;;;;;;;;;;;;;8.90;40.59;101060.16;143736;984;46010;-69
2021/12/20 07:23:01;;;;;;;;;;;;;;;9.01;40.78;101069.59;143735;970;47002;-68
2021/12/20 07:25:27;;;;;;;;;;;;;;;9.09;40.60;101070.34;143734;982;47012;-69
2021/12/20 07:27:53;;;;;;;;;;;;;;;9.15;40.47;101081.37;143733;981;47004;-69
2021/12/20 07:30:20;;;;;;;;;;;;;;;9.24;40.98;101083.00;143734;984;47010;-68
2021/12/20 07:32:46;;;;;;;;;;;;;;;9.37;40.74;101072.47;143735;985;47002;-69
2021/12/20 07:35:12;;;;;;;;;;;;;;;9.57;40.96;101077.31;143733;982;47012;-69
2021/12/20 07:37:38;;;;;;;;;;;;;;;9.68;41.14;101092.13;143731;982;47004;-70
2021/12/20 07:40:07;;;;;;;;;;;;;;;9.79;40.97;101080.13;143734;984;46010;-70
2021/12/20 07:42:34;;;;;;;;;;;;;;;9.96;40.37;101086.12;143735;986;47002;-71
2021/12/20 07:45:00;;;;;;;;;;;;;;;10.13;39.90;101082.22;143735;966;46034;-69
2021/12/20 07:47:25;;;;;;;;;;;;;;;10.29;40.34;101093.75;143732;982;47004;-70
2021/12/20 07:49:52;;;;;;;;;;;;;;;10.46;39.92;101092.56;143735;983;46010;-70
2021/12/20 07:52:18;;;;;;;;;;;;;;;10.61;39.01;101095.22;143735;984;47002;-70
2021/12/20 07:54:44;;;;;;;;;;;;;;;10.74;38.41;101101.75;143735;980;46012;-69
2021/12/20 07:57:10;;;;;;;;;;;;;;;10.92;38.47;101114.78;143732;981;47004;-70
2021/12/20 07:59:36;;;;;;;;;;;;;;;11.03;37.87;101110.75;143732;984;47002;-70
2021/12/20 08:02:02;;;;;;;;;;;;;;;11.13;37.57;101110.41;143734;986;47002;-73
2021/12/20 08:04:28;;;;;;;;;;;;;;;11.25;37.55;101118.78;143734;981;47012;-72
2021/12/20 08:06:54;;;;;;;;;;;;;;;11.27;37.22;101114.91;143732;976;48937;-73
2021/12/20 08:09:19;;;;;;;;;;;;;;;11.37;36.44;101117.25;143735;984;46010;-72
2021/12/20 08:11:45;;;;;;;;;;;;;;;11.41;36.79;101115.81;143733;985;47002;-65
2021/12/20 08:14:11;;;;;;;;;;;;;;;11.55;36.72;101124.84;143733;982;47012;-67
2021/12/20 08:16:37;;;;;;;;;;;;;;;11.55;36.07;101132.91;143732;982;47005;-68
2021/12/20 08:19:04;;;;;;;;;;;;;;;11.60;36.17;101135.00;143734;983;47010;-67
2021/12/20 08:21:30;;;;;;;;;;;;;;;11.67;36.47;101122.44;143735;986;47002;-65
2021/12/20 08:23:55;;;;;;;;;;;;;;;11.83;36.30;101121.28;143735;967;46938;-65
2021/12/20 08:26:21;;;;;;;;;;;;;;;11.99;36.55;101114.81;143731;981;47004;-69
2021/12/20 08:28:47;;;;;;;;;;;;;;;12.21;35.97;101125.50;143735;972;46028;-67
2021/12/20 08:31:13;;;;;;;;;;;;;;;12.30;35.67;101126.16;143734;986;47002;-66
2021/12/20 08:33:39;;;;;;;;;;;;;;;12.40;36.03;101135.53;143734;981;46937;-69
2021/12/20 08:36:09;;;;;;;;;;;;;;;12.53;35.20;101139.31;143734;982;47004;-65
2021/12/20 08:38:35;;;;;;;;;;;;;;;12.67;35.29;101127.53;143735;972;46028;-64
2021/12/20 08:41:01;;;;;;;;;;;;;;;12.80;34.78;101137.53;143735;985;47002;-67
2021/12/20 08:43:29;;;;;;;;;;;;;;;12.91;34.91;101133.44;143733;982;47012;-66
2021/12/20 08:45:56;;;;;;;;;;;;;;;13.02;34.66;101137.41;143732;982;47004;-70
2021/12/20 08:48:22;;;;;;;;;;;;;;;13.11;34.92;101132.63;143734;983;46010;-70
2021/12/20 08:50:48;;;;;;;;;;;;;;;13.28;35.01;101135.75;143734;985;47002;-73
2021/12/20 08:53:14;;;;;;;;;;;;;;;13.43;33.88;101131.03;143736;982;46004;-73
2021/12/20 08:55:40;;;;;;;;;;;;;;;13.54;33.87;101132.25;143731;981;47004;-74
2021/12/20 08:58:06;;;;;;;;;;;;;;;13.62;33.59;101147.41;143735;984;46010;-74
2021/12/20 09:00:34;;;;;;;;;;;;;;;13.73;34.07;101148.66;143735;986;47002;-71
2021/12/20 09:03:00;;;;;;;;;;;;;;;13.88;34.25;101153.84;143734;970;47012;-71
2021/12/20 09:05:27;;;;;;;;;;;;;;;14.08;33.76;101141.13;143732;982;47004;-70
2021/12/20 09:07:55;;;;;;;;;;;;;;;14.34;32.77;101150.19;143737;984;46010;-68
2021/12/20 09:10:21;;;;;;;;;;;;;;;14.61;32.35;101142.00;143735;985;47002;-70
2021/12/20 09:12:47;;;;;;;;;;;;;;;18.16;27.33;101147.06;143735;982;46012;-72
2021/12/20 09:15:16;;;;;;;;;;;;;;;24.48;19.27;101150.56;143734;981;47004;-67
2021/12/20 09:17:46;;;;;;;;;;;;;;;28.83;14.52;101146.28;143734;984;47010;-73
2021/12/20 09:20:13;;;;;;;;;;;;;;;31.66;12.48;101143.91;143735;986;47002;-71
2021/12/20 09:22:49;;;;;;;;;;;;;;;33.40;11.19;101143.03;143732;982;47012;-72
2021/12/20 09:25:16;;;;;;;;;;;;;;;34.77;9.85;101156.94;143733;981;47004;-72
2021/12/20 09:27:42;;;;;;;;;;;;;;;35.92;9.65;101155.56;143734;984;46935;-72
2021/12/20 09:30:08;;;;;;;;;;;;;;;36.85;8.50;101148.44;143735;984;47002;-71
2021/12/20 09:32:34;;;;;;;;;;;;;;;37.75;8.08;101154.91;143734;981;47013;-72
2021/12/20 09:35:00;;;;;;;;;;;;;;;38.61;8.28;101142.53;143734;980;47002;-73
2021/12/20 09:37:26;;;;;;;;;;;;;;;39.31;7.36;101142.09;143736;981;46008;-71
2021/12/20 09:39:54;;;;;;;;;;;;;;;40.24;6.43;101138.41;143735;985;47000;-72
2021/12/20 09:42:21;;;;;;;;;;;;;;;40.85;6.42;101129.41;143733;982;47010;-71
2021/12/20 09:44:47;;;;;;;;;;;;;;;41.65;6.11;101125.47;143733;982;47002;-70
2021/12/20 09:47:13;;;;;;;;;;;;;;;42.22;5.62;101117.28;143736;981;46009;-70
2021/12/20 09:49:39;;;;;;;;;;;;;;;42.77;5.43;101115.03;143732;985;47000;-71
2021/12/20 09:52:06;;;;;;;;;;;;;;;43.11;5.14;101106.75;143734;982;47010;-71
2021/12/20 09:54:32;;;;;;;;;;;;;;;43.61;4.81;101099.84;143733;982;47002;-71
2021/12/20 09:56:59;;;;;;;;;;;;;;;44.05;4.73;101096.62;143735;984;46008;-70
2021/12/20 09:59:27;;;;;;;;;;;;;;;44.36;4.41;101096.62;143734;985;47000;-72
2021/12/20 10:01:53;;;;;;;;;;;;;;;44.45;4.15;101091.28;143734;977;47010;-70
2021/12/20 10:04:20;;;;;;;;;;;;;;;44.60;4.69;101091.84;143732;982;47002;-71
2021/12/20 10:06:51;;;;;;;;;;;;;;;44.59;4.51;101092.28;143734;984;46008;-70
2021/12/20 10:09:23;;;;;;;;;;;;;;;43.58;4.84;101092.22;143734;985;47000;-69
2021/12/20 10:11:49;;;;;;;;;;;;;;;39.03;6.88;101092.88;143734;982;47010;-71
2021/12/20 10:14:16;;;;;;;;;;;;;;;35.81;9.67;101100.25;143732;982;47002;-70
2021/12/20 10:16:43;;;;;;;;;;;;;;;34.01;11.28;101094.09;143734;984;47000;-71
2021/12/20 10:19:28;;;;;;;;;;;;;;;33.04;10.82;101083.31;143735;967;47008;-70
2021/12/20 10:21:55;;;;;;;;;;;;;;;32.65;11.99;101089.06;143734;982;46010;-70
2021/12/20 10:24:34;;;;;;;;;;;;;;;35.74;9.83;101090.87;143732;981;47002;-71
2021/12/20 10:27:01;;;;;;;;;;;;;;;39.69;7.52;101090.22;143736;984;46008;-69
2021/12/20 10:29:27;;;;;;;;;;;;;;;42.00;5.80;101102.47;143735;985;47000;-72
2021/12/20 10:31:53;;;;;;;;;;;;;;;42.91;5.45;101085.91;143734;985;47011;-70
2021/12/20 10:34:29;;;;;;;;;;;;;;;43.72;5.17;101108.25;143731;982;47010;-71
2021/12/20 10:36:56;;;;;;;;;;;;;;;43.80;5.24;101106.16;143735;984;46008;-72
2021/12/20 10:39:41;;;;;;;;;;;;;;;43.74;4.93;101119.97;143732;986;47000;-71
2021/12/20 10:42:38;;;;;;;;;;;;;;;43.84;5.32;101108.97;143735;982;46010;-70
2021/12/20 10:45:13;;;;;;;;;;;;;;;44.00;5.51;101108.37;143731;982;47002;-70
2021/12/20 10:47:40;;;;;;;;;;;;;;;43.85;5.24;101110.56;143735;983;46008;-71
2021/12/20 10:50:26;;;;;;;;;;;;;;;43.75;5.26;101096.09;143737;985;47000;-72
2021/12/20 10:52:53;;;;;;;;;;;;;;;43.60;5.12;101088.97;143734;982;46011;-70
2021/12/20 10:55:37;;;;;;;;;;;;;;;43.44;5.17;101086.69;143731;981;47004;-70
2021/12/20 10:58:22;;;;;;;;;;;;;;;43.45;5.17;101074.97;143735;982;46010;-71
2021/12/20 11:04:24;;;;;;;;;;;;;;;42.06;5.87;101098.00;143733;986;47008;-66
2021/12/20 11:10:01;;;;;;;;;;;;;;;35.00;10.15;101103.34;143734;983;46010;-65
2021/12/20 11:12:32;;;;;;;;;;;;;;;33.68;11.05;101108.13;143736;985;47002;-66
2021/12/20 11:15:00;;;;;;;;;;;;;;;32.72;11.50;101107.19;143735;982;47012;-66
2021/12/20 11:17:28;;;;;;;;;;;;;;;31.70;12.38;101106.00;143731;981;47004;-65
2021/12/20 11:19:55;;;;;;;;;;;;;;;31.23;13.38;101106.00;143734;980;47010;-67
2021/12/20 11:22:24;;;;;;;;;;;;;;;31.12;13.38;101106.34;143733;985;47003;-65
2021/12/20 11:24:51;;;;;;;;;;;;;;;31.06;13.41;101106.84;143734;981;47013;-67
2021/12/20 11:27:22;;;;;;;;;;;;;;;30.82;12.94;101099.84;143731;982;47004;-66
2021/12/20 11:29:49;;;;;;;;;;;;;;;30.51;12.85;101106.34;143735;984;47010;-66
2021/12/20 11:32:16;;;;;;;;;;;;;;;30.15;13.70;101105.47;143735;985;47002;-65
2021/12/20 11:34:43;;;;;;;;;;;;;;;29.85;14.20;101108.00;143734;982;46012;-66
2021/12/20 11:37:12;;;;;;;;;;;;;;;29.50;14.12;101114.19;143735;982;47005;-66
2021/12/20 11:39:38;;;;;;;;;;;;;;;29.14;14.43;101108.75;143736;980;46010;-66
2021/12/20 11:42:06;;;;;;;;;;;;;;;29.09;14.51;101109.72;143738;986;46010;-66
2021/12/20 11:44:32;;;;;;;;;;;;;;;28.97;14.81;101114.97;143733;982;47012;-65
2021/12/20 11:47:18;;;;;;;;;;;;;;;28.82;13.97;101113.44;143732;981;47004;-66
2021/12/20 11:49:44;;;;;;;;;;;;;;;28.65;15.13;101112.13;143736;984;46010;-67
2021/12/20 11:52:17;;;;;;;;;;;;;;;28.58;15.18;101112.56;143734;985;47002;-68
2021/12/20 11:54:51;;;;;;;;;;;;;;;28.50;15.05;101118.81;143734;981;46013;-67
2021/12/20 11:57:33;;;;;;;;;;;;;;;28.18;14.84;101119.78;143732;982;47004;-66
2021/12/20 12:00:00;;;;;;;;;;;;;;;27.90;15.36;101120.59;143736;980;46019;-66
2021/12/20 12:02:28;;;;;;;;;;;;;;;27.55;16.55;101125.66;143736;985;47002;-66
2021/12/20 12:04:55;;;;;;;;;;;;;;;26.98;17.20;101123.88;143733;982;47012;-67
2021/12/20 12:07:21;;;;;;;;;;;;;;;26.66;16.74;101122.66;143732;982;47004;-66
2021/12/20 12:09:57;;;;;;;;;;;;;;;26.35;17.51;101127.78;143735;983;46010;-66
2021/12/20 12:12:24;;;;;;;;;;;;;;;26.00;17.54;101127.91;143734;985;47002;-65
2021/12/20 12:15:05;;;;;;;;;;;;;;;25.71;17.98;101124.09;143734;982;46012;-66
2021/12/20 12:17:49;;;;;;;;;;;;;;;25.19;18.82;101115.50;143732;981;47004;-66
2021/12/20 12:20:34;;;;;;;;;;;;;;;24.97;18.91;101116.75;143734;982;46010;-65
2021/12/20 12:23:18;;;;;;;;;;;;;;;25.26;18.88;101110.47;143733;985;47003;-67
2021/12/20 12:26:01;;;;;;;;;;;;;;;25.23;18.09;101115.72;143734;979;46012;-67
2021/12/20 12:28:47;;;;;;;;;;;;;;;25.27;18.48;101125.06;143729;982;47004;-65
2021/12/20 12:31:13;;;;;;;;;;;;;;;24.81;19.29;101121.53;143735;975;46025;-67
2021/12/20 12:33:40;;;;;;;;;;;;;;;24.11;19.33;101116.94;143734;984;47002;-65
2021/12/20 12:36:21;;;;;;;;;;;;;;;23.51;20.16;101125.88;143732;982;47012;-67
2021/12/20 12:38:52;;;;;;;;;;;;;;;23.22;20.92;101112.72;143735;981;47004;-70
2021/12/20 12:41:22;;;;;;;;;;;;;;;23.11;20.85;101128.31;143736;984;46010;-66
2021/12/20 12:43:58;;;;;;;;;;;;;;;22.99;21.42;101127.75;143742;985;47002;-66
2021/12/20 12:46:58;;;;;;;;;;;;;;;22.80;20.68;101122.78;143741;981;46013;-68
2021/12/20 12:49:44;;;;;;;;;;;;;;;22.45;21.21;101115.31;143740;982;47004;-67
2021/12/20 12:52:36;;;;;;;;;;;;;;;22.07;22.05;101112.66;143743;983;46011;-67
2021/12/20 12:55:13;;;;;;;;;;;;;;;21.94;21.50;101122.22;143743;985;47002;-68
2021/12/20 12:57:40;;;;;;;;;;;;;;;21.81;22.24;101134.44;143742;975;46004;-65
2021/12/20 13:00:13;;;;;;;;;;;;;;;21.50;22.78;101137.75;143741;982;47004;-67
2021/12/20 13:02:41;;;;;;;;;;;;;;;21.30;23.13;101143.03;143742;977;46938;-66
2021/12/20 13:05:15;;;;;;;;;;;;;;;21.06;24.26;101143.41;143743;974;47002;-66
2021/12/20 13:07:49;;;;;;;;;;;;;;;20.57;24.68;101136.03;143740;977;47012;-67
2021/12/20 13:10:16;;;;;;;;;;;;;;;20.07;26.23;101137.88;143739;968;47004;-66